sensor_id;sensor_type;location;lat;lon;timestamp;pressure;altitude;pressure_sealevel;temperature;humidity
9035;BME280;4552;43.422;24.592;2023-10-19T00:34:21;99913.53;;;7.62;92.67
9035;BME280;4552;43.422;24.592;2023-10-19T00:36:49;99917.00;;;7.70;93.05
9035;BME280;4552;43.422;24.592;2023-10-19T00:39:17;99908.28;;;7.79;92.54
9035;BME280;4552;43.422;24.592;2023-10-19T00:41:46;99904.78;;;7.80;91.78
9035;BME280;4552;43.422;24.592;2023-10-19T00:44:14;99885.63;;;7.99;91.49
9035;BME280;4552;43.422;24.592;2023-10-19T00:46:48;99889.09;;;7.96;91.38
9035;BME280;4552;43.422;24.592;2023-10-19T00:49:27;99880.44;;;7.91;92.03
9035;BME280;4552;43.422;24.592;2023-10-19T00:51:56;99880.44;;;7.91;91.95
9035;BME280;4552;43.422;24.592;2023-10-19T00:54:38;99878.72;;;7.89;91.39
9035;BME280;4552;43.422;24.592;2023-10-19T00:57:08;99898.69;;;7.93;90.99
9035;BME280;4552;43.422;24.592;2023-10-19T00:59:36;99878.72;;;7.89;91.20
9035;BME280;4552;43.422;24.592;2023-10-19T01:02:09;99898.69;;;7.96;91.47
9035;BME280;4552;43.422;24.592;2023-10-19T01:04:50;99900.34;;;8.06;91.38
9035;BME280;4552;43.422;24.592;2023-10-19T01:07:21;99889.09;;;7.96;91.90
9035;BME280;4552;43.422;24.592;2023-10-19T01:09:54;99869.16;;;7.91;91.79
9035;BME280;4552;43.422;24.592;2023-10-19T01:12:22;99878.72;;;7.84;92.61
9035;BME280;4552;43.422;24.592;2023-10-19T01:15:05;99881.34;;;7.80;92.63
9035;BME280;4552;43.422;24.592;2023-10-19T01:17:34;99883.91;;;7.87;91.85
9035;BME280;4552;43.422;24.592;2023-10-19T01:20:08;99867.47;;;7.81;91.27
9035;BME280;4552;43.422;24.592;2023-10-19T01:22:51;99864.03;;;7.70;91.97
9035;BME280;4552;43.422;24.592;2023-10-19T01:35:37;99871.09;;;7.29;93.23
9035;BME280;4552;43.422;24.592;2023-10-19T01:38:19;99879.78;;;7.08;92.80
9035;BME280;4552;43.422;24.592;2023-10-19T01:40:47;99869.38;;;6.79;93.78
9035;BME280;4552;43.422;24.592;2023-10-19T01:43:14;99878.91;;;7.01;95.83
9035;BME280;4552;43.422;24.592;2023-10-19T01:45:47;99871.97;;;6.88;94.62
9035;BME280;4552;43.422;24.592;2023-10-19T01:48:13;99867.66;;;6.75;95.60
9035;BME280;4552;43.422;24.592;2023-10-19T01:50:40;99884.09;;;6.97;95.31
9035;BME280;4552;43.422;24.592;2023-10-19T01:53:07;99887.59;;;6.93;95.69
9035;BME280;4552;43.422;24.592;2023-10-19T01:55:42;99882.38;;;7.16;94.87
9035;BME280;4552;43.422;24.592;2023-10-19T01:58:09;99877.19;;;6.88;93.65
9035;BME280;4552;43.422;24.592;2023-10-19T02:00:36;99870.25;;;6.80;94.24
9035;BME280;4552;43.422;24.592;2023-10-19T02:03:06;99902.31;;;6.77;94.60
9035;BME280;4552;43.422;24.592;2023-10-19T02:05:34;99882.38;;;6.69;95.70
9035;BME280;4552;43.422;24.592;2023-10-19T02:08:07;99884.09;;;6.62;95.67
9035;BME280;4552;43.422;24.592;2023-10-19T02:24:04;99878.88;;;6.32;97.00
9035;BME280;4552;43.422;24.592;2023-10-19T02:36:38;99890.97;;;6.24;95.80
9035;BME280;4552;43.422;24.592;2023-10-19T02:39:08;99880.53;;;6.15;95.03
9035;BME280;4552;43.422;24.592;2023-10-19T03:01:48;99867.56;;;6.15;96.89
9035;BME280;4552;43.422;24.592;2023-10-19T03:04:17;99874.47;;;6.13;97.60
9035;BME280;4552;43.422;24.592;2023-10-19T03:06:45;99871.06;;;6.25;98.71
9035;BME280;4552;43.422;24.592;2023-10-19T03:09:11;99855.44;;;6.11;99.06
9035;BME280;4552;43.422;24.592;2023-10-19T03:35:14;99859.81;;;6.72;100.00
9035;BME280;4552;43.422;24.592;2023-10-19T03:37:41;99861.56;;;6.57;100.00
9035;BME280;4552;43.422;24.592;2023-10-19T03:40:08;99832.97;;;6.55;100.00
9035;BME280;4552;43.422;24.592;2023-10-19T03:42:43;99855.50;;;6.74;100.00
9035;BME280;4552;43.422;24.592;2023-10-19T03:45:12;99856.38;;;6.61;97.51
9035;BME280;4552;43.422;24.592;2023-10-19T03:47:40;99823.41;;;6.98;99.54
9035;BME280;4552;43.422;24.592;2023-10-19T03:50:09;99823.41;;;7.10;100.00
9035;BME280;4552;43.422;24.592;2023-10-19T03:52:41;99839.03;;;6.99;96.70
9035;BME280;4552;43.422;24.592;2023-10-19T04:01:55;99819.94;;;7.02;98.49
9035;BME280;4552;43.422;24.592;2023-10-19T04:04:25;99820.72;;;7.36;100.00
9035;BME280;4552;43.422;24.592;2023-10-19T04:06:55;99832.00;;;7.44;98.69
9035;BME280;4552;43.422;24.592;2023-10-19T04:09:26;99836.38;;;7.31;97.61
9035;BME280;4552;43.422;24.592;2023-10-19T04:11:55;99833.75;;;7.39;98.14
9035;BME280;4552;43.422;24.592;2023-10-19T04:14:22;99834.69;;;6.95;97.02
9035;BME280;4552;43.422;24.592;2023-10-19T04:16:50;99832.94;;;7.00;98.51
9035;BME280;4552;43.422;24.592;2023-10-19T04:19:17;99810.41;;;7.05;99.77
9035;BME280;4552;43.422;24.592;2023-10-19T04:21:44;99813.00;;;7.08;98.08
9035;BME280;4552;43.422;24.592;2023-10-19T04:24:12;99826.06;;;6.74;97.39
9035;BME280;4552;43.422;24.592;2023-10-19T04:26:41;99804.38;;;6.57;97.83
9035;BME280;4552;43.422;24.592;2023-10-19T04:29:08;99827.78;;;6.61;98.96
9035;BME280;4552;43.422;24.592;2023-10-19T04:31:37;99814.78;;;6.64;100.00
9035;BME280;4552;43.422;24.592;2023-10-19T04:34:14;99807.81;;;6.63;99.54
9035;BME280;4552;43.422;24.592;2023-10-19T04:36:43;99805.22;;;6.60;99.66
9035;BME280;4552;43.422;24.592;2023-10-19T04:39:10;99809.56;;;6.69;99.96
9035;BME280;4552;43.422;24.592;2023-10-19T04:41:41;99809.56;;;6.66;99.62
9035;BME280;4552;43.422;24.592;2023-10-19T04:44:10;99809.56;;;6.58;100.00
9035;BME280;4552;43.422;24.592;2023-10-19T04:46:37;99793.09;;;6.50;99.96
9035;BME280;4552;43.422;24.592;2023-10-19T04:49:04;99816.50;;;6.68;99.25
9035;BME280;4552;43.422;24.592;2023-10-19T04:51:31;99819.09;;;6.62;98.30
9035;BME280;4552;43.422;24.592;2023-10-19T04:54:00;99791.38;;;6.46;98.24
9035;BME280;4552;43.422;24.592;2023-10-19T05:06:36;99796.56;;;6.58;98.58
9035;BME280;4552;43.422;24.592;2023-10-19T05:09:04;99806.06;;;6.92;99.68
9035;BME280;4552;43.422;24.592;2023-10-19T05:14:53;99820.84;;;6.89;98.06
9035;BME280;4552;43.422;24.592;2023-10-19T05:17:20;99820.84;;;6.90;98.82
9035;BME280;4552;43.422;24.592;2023-10-19T05:19:49;99801.72;;;6.99;98.32
9035;BME280;4552;43.422;24.592;2023-10-19T05:22:18;99793.88;;;7.17;97.87
9035;BME280;4552;43.422;24.592;2023-10-19T05:24:47;99800.78;;;7.39;98.28
9035;BME280;4552;43.422;24.592;2023-10-19T05:50:48;99836.53;;;8.70;95.36
9035;BME280;4552;43.422;24.592;2023-10-19T05:53:15;99850.59;;;8.54;95.20
9035;BME280;4552;43.422;24.592;2023-10-19T05:55:44;99827.13;;;8.54;95.21
9035;BME280;4552;43.422;24.592;2023-10-19T05:58:11;99820.91;;;8.68;95.55
9035;BME280;4552;43.422;24.592;2023-10-19T06:00:38;99818.00;;;9.03;97.24
9035;BME280;4552;43.422;24.592;2023-10-19T06:03:05;99820.63;;;9.02;94.14
9035;BME280;4552;43.422;24.592;2023-10-19T06:05:33;99811.81;;;9.12;93.09
9035;BME280;4552;43.422;24.592;2023-10-19T06:08:03;99808.00;;;9.43;94.19
9035;BME280;4552;43.422;24.592;2023-10-19T06:17:05;99809.34;;;9.74;89.96
9035;BME280;4552;43.422;24.592;2023-10-19T06:19:32;99803.25;;;9.76;90.42
9035;BME280;4552;43.422;24.592;2023-10-19T06:21:59;99809.00;;;10.02;90.88
9035;BME280;4552;43.422;24.592;2023-10-19T06:24:27;99810.63;;;10.12;90.22
9035;BME280;4552;43.422;24.592;2023-10-19T06:36:59;99816.03;;;11.08;86.45
9035;BME280;4552;43.422;24.592;2023-10-19T06:39:28;99822.81;;;11.21;84.53
9035;BME280;4552;43.422;24.592;2023-10-19T07:05:44;99834.28;;;12.80;75.70
9035;BME280;4552;43.422;24.592;2023-10-19T07:08:11;99832.16;;;12.96;74.85
9035;BME280;4552;43.422;24.592;2023-10-19T07:10:38;99821.91;;;13.20;73.81
9035;BME280;4552;43.422;24.592;2023-10-19T07:13:04;99821.88;;;13.22;72.01
9035;BME280;4552;43.422;24.592;2023-10-19T07:15:31;99819.53;;;13.42;73.31
9035;BME280;4552;43.422;24.592;2023-10-19T07:17:59;99820.41;;;13.42;72.58
9035;BME280;4552;43.422;24.592;2023-10-19T07:20:26;99817.09;;;13.66;72.90
9035;BME280;4552;43.422;24.592;2023-10-19T07:23:00;99812.59;;;13.71;71.50
9035;BME280;4552;43.422;24.592;2023-10-19T07:36:21;99799.03;;;14.43;68.30
9035;BME280;4552;43.422;24.592;2023-10-19T07:38:51;99787.13;;;14.59;68.80
9035;BME280;4552;43.422;24.592;2023-10-19T07:41:18;99786.56;;;14.76;67.81
9035;BME280;4552;43.422;24.592;2023-10-19T07:43:45;99792.78;;;14.73;67.74
9035;BME280;4552;43.422;24.592;2023-10-19T07:46:12;99790.19;;;14.98;66.93
9035;BME280;4552;43.422;24.592;2023-10-19T07:48:39;99777.31;;;14.89;66.15
9035;BME280;4552;43.422;24.592;2023-10-19T07:51:08;99793.94;;;15.17;65.07
9035;BME280;4552;43.422;24.592;2023-10-19T07:53:36;99788.44;;;15.23;64.35
9035;BME280;4552;43.422;24.592;2023-10-19T07:56:05;99777.47;;;15.35;63.14
9035;BME280;4552;43.422;24.592;2023-10-19T07:58:32;99783.84;;;15.54;62.31
9035;BME280;4552;43.422;24.592;2023-10-19T08:00:59;99778.97;;;15.67;61.30
9035;BME280;4552;43.422;24.592;2023-10-19T08:03:26;99779.59;;;15.73;61.60
9035;BME280;4552;43.422;24.592;2023-10-19T08:05:53;99789.41;;;15.93;60.57
9035;BME280;4552;43.422;24.592;2023-10-19T08:08:20;99794.59;;;16.40;58.55
9035;BME280;4552;43.422;24.592;2023-10-19T08:10:50;99795.59;;;16.38;58.42
9035;BME280;4552;43.422;24.592;2023-10-19T08:13:18;99784.25;;;16.34;58.75
9035;BME280;4552;43.422;24.592;2023-10-19T08:15:45;99783.94;;;16.65;57.93
9035;BME280;4552;43.422;24.592;2023-10-19T08:18:12;99780.34;;;16.87;55.89
9035;BME280;4552;43.422;24.592;2023-10-19T08:20:40;99770.06;;;17.01;55.18
9035;BME280;4552;43.422;24.592;2023-10-19T08:23:11;99779.47;;;17.08;54.08
9035;BME280;4552;43.422;24.592;2023-10-19T08:25:39;99776.78;;;17.28;53.54
9035;BME280;4552;43.422;24.592;2023-10-19T08:28:06;99777.63;;;17.51;52.43
9035;BME280;4552;43.422;24.592;2023-10-19T08:30:34;99784.34;;;17.58;52.23
9035;BME280;4552;43.422;24.592;2023-10-19T08:33:03;99766.22;;;17.49;52.02
9035;BME280;4552;43.422;24.592;2023-10-19T08:35:34;99775.66;;;17.56;52.23
9035;BME280;4552;43.422;24.592;2023-10-19T08:38:01;99773.50;;;17.64;52.46
9035;BME280;4552;43.422;24.592;2023-10-19T08:40:35;99758.16;;;17.52;51.13
9035;BME280;4552;43.422;24.592;2023-10-19T08:43:03;99751.63;;;17.79;50.25
9035;BME280;4552;43.422;24.592;2023-10-19T08:45:32;99766.91;;;18.11;49.36
9035;BME280;4552;43.422;24.592;2023-10-19T08:48:02;99768.09;;;18.22;49.45
9035;BME280;4552;43.422;24.592;2023-10-19T08:50:31;99750.50;;;18.21;48.85
9035;BME280;4552;43.422;24.592;2023-10-19T08:52:59;99753.34;;;18.35;48.78
9035;BME280;4552;43.422;24.592;2023-10-19T08:55:28;99764.66;;;18.39;49.07
9035;BME280;4552;43.422;24.592;2023-10-19T08:57:55;99753.81;;;18.62;48.30
9035;BME280;4552;43.422;24.592;2023-10-19T09:00:24;99754.75;;;18.61;47.86
9035;BME280;4552;43.422;24.592;2023-10-19T09:02:52;99741.09;;;18.51;47.87
9035;BME280;4552;43.422;24.592;2023-10-19T09:05:26;99747.88;;;18.57;47.33
9035;BME280;4552;43.422;24.592;2023-10-19T09:07:53;99732.59;;;18.62;47.54
9035;BME280;4552;43.422;24.592;2023-10-19T09:10:31;99733.81;;;18.73;47.76
9035;BME280;4552;43.422;24.592;2023-10-19T09:16:23;99726.53;;;18.77;46.97
9035;BME280;4552;43.422;24.592;2023-10-19T09:18:52;99733.09;;;18.87;46.05
9035;BME280;4552;43.422;24.592;2023-10-19T09:21:20;99741.13;;;19.20;46.29
9035;BME280;4552;43.422;24.592;2023-10-19T09:23:51;99722.03;;;19.30;45.55
9035;BME280;4552;43.422;24.592;2023-10-19T09:26:18;99729.19;;;19.45;45.26
9035;BME280;4552;43.422;24.592;2023-10-19T09:28:47;99745.47;;;19.87;44.47
9035;BME280;4552;43.422;24.592;2023-10-19T09:31:15;99748.22;;;20.01;44.32
9035;BME280;4552;43.422;24.592;2023-10-19T09:33:43;99750.94;;;20.32;44.04
9035;BME280;4552;43.422;24.592;2023-10-19T09:36:11;99737.06;;;20.27;43.11
9035;BME280;4552;43.422;24.592;2023-10-19T09:38:43;99733.56;;;20.10;43.24
9035;BME280;4552;43.422;24.592;2023-10-19T10:01:24;99723.31;;;20.50;42.41
9035;BME280;4552;43.422;24.592;2023-10-19T10:03:52;99713.13;;;20.73;42.83
9035;BME280;4552;43.422;24.592;2023-10-19T10:06:30;99713.09;;;20.58;42.42
9035;BME280;4552;43.422;24.592;2023-10-19T10:09:06;99707.34;;;20.50;42.61
9035;BME280;4552;43.422;24.592;2023-10-19T10:15:37;99692.91;;;20.54;42.58
9035;BME280;4552;43.422;24.592;2023-10-19T10:18:17;99675.09;;;20.41;42.75
9035;BME280;4552;43.422;24.592;2023-10-19T10:20:44;99692.66;;;20.59;42.40
9035;BME280;4552;43.422;24.592;2023-10-19T10:23:17;99685.28;;;20.64;42.59
9035;BME280;4552;43.422;24.592;2023-10-19T10:25:47;99675.34;;;20.52;42.38
9035;BME280;4552;43.422;24.592;2023-10-19T11:22:47;99583.19;;;21.37;41.24
9035;BME280;4552;43.422;24.592;2023-10-19T11:25:19;99579.50;;;21.39;41.55
9035;BME280;4552;43.422;24.592;2023-10-19T11:34:30;99561.47;;;21.57;40.95
9035;BME280;4552;43.422;24.592;2023-10-19T11:37:00;99547.94;;;21.60;40.52
9035;BME280;4552;43.422;24.592;2023-10-19T11:39:30;99548.88;;;21.73;40.68
9035;BME280;4552;43.422;24.592;2023-10-19T12:02:10;99532.69;;;22.42;39.20
9035;BME280;4552;43.422;24.592;2023-10-19T12:04:39;99529.19;;;22.91;37.83
9035;BME280;4552;43.422;24.592;2023-10-19T12:07:08;99528.69;;;22.61;38.74
9035;BME280;4552;43.422;24.592;2023-10-19T12:09:35;99517.13;;;22.48;38.23
9035;BME280;4552;43.422;24.592;2023-10-19T12:19:15;99534.44;;;22.55;38.61
9035;BME280;4552;43.422;24.592;2023-10-19T12:21:46;99524.38;;;22.46;38.12
9035;BME280;4552;43.422;24.592;2023-10-19T12:24:15;99525.28;;;22.20;38.24
9035;BME280;4552;43.422;24.592;2023-10-19T12:26:47;99507.97;;;22.13;38.07
9035;BME280;4552;43.422;24.592;2023-10-19T12:29:14;99525.84;;;22.25;38.49
9035;BME280;4552;43.422;24.592;2023-10-19T12:31:43;99526.34;;;22.69;38.33
9035;BME280;4552;43.422;24.592;2023-10-19T12:34:17;99500.47;;;22.70;37.79
9035;BME280;4552;43.422;24.592;2023-10-19T12:36:44;99517.47;;;22.69;37.81
9035;BME280;4552;43.422;24.592;2023-10-19T12:39:12;99512.44;;;22.64;38.56
9035;BME280;4552;43.422;24.592;2023-10-19T12:42:00;99497.59;;;22.73;38.54
9035;BME280;4552;43.422;24.592;2023-10-19T12:44:28;99482.50;;;23.09;38.35
9035;BME280;4552;43.422;24.592;2023-10-19T12:47:02;99478.88;;;23.10;37.73
9035;BME280;4552;43.422;24.592;2023-10-19T12:49:36;99470.34;;;23.05;37.63
9035;BME280;4552;43.422;24.592;2023-10-19T12:52:03;99480.72;;;22.97;37.81
9035;BME280;4552;43.422;24.592;2023-10-19T12:54:32;99470.78;;;22.99;37.38
9035;BME280;4552;43.422;24.592;2023-10-19T13:03:31;99459.84;;;23.27;37.59
9035;BME280;4552;43.422;24.592;2023-10-19T13:05:59;99456.06;;;22.94;37.82
9035;BME280;4552;43.422;24.592;2023-10-19T13:08:29;99454.28;;;22.82;38.41
9035;BME280;4552;43.422;24.592;2023-10-19T13:10:56;99446.91;;;22.48;38.01
9035;BME280;4552;43.422;24.592;2023-10-19T13:16:48;99434.81;;;22.42;38.58
9035;BME280;4552;43.422;24.592;2023-10-19T13:19:16;99434.53;;;22.34;38.68
9035;BME280;4552;43.422;24.592;2023-10-19T13:21:47;99425.66;;;22.71;37.96
9035;BME280;4552;43.422;24.592;2023-10-19T13:24:16;99420.97;;;22.62;38.37
9035;BME280;4552;43.422;24.592;2023-10-19T13:26:45;99407.75;;;22.23;38.77
9035;BME280;4552;43.422;24.592;2023-10-19T13:29:12;99404.09;;;22.37;38.35
9035;BME280;4552;43.422;24.592;2023-10-19T13:31:40;99407.41;;;22.40;37.66
9035;BME280;4552;43.422;24.592;2023-10-19T13:34:10;99421.50;;;22.55;37.61
9035;BME280;4552;43.422;24.592;2023-10-19T13:36:38;99413.91;;;22.49;38.33
9035;BME280;4552;43.422;24.592;2023-10-19T13:39:07;99402.69;;;22.44;37.91
9035;BME280;4552;43.422;24.592;2023-10-19T13:41:41;99402.31;;;22.50;38.26
9035;BME280;4552;43.422;24.592;2023-10-19T13:44:08;99404.75;;;22.65;37.55
9035;BME280;4552;43.422;24.592;2023-10-19T13:46:35;99402.34;;;22.98;37.60
9035;BME280;4552;43.422;24.592;2023-10-19T13:49:02;99412.81;;;22.89;37.28
9035;BME280;4552;43.422;24.592;2023-10-19T13:51:35;99418.06;;;22.78;37.74
9035;BME280;4552;43.422;24.592;2023-10-19T13:54:02;99422.50;;;23.02;37.43
9035;BME280;4552;43.422;24.592;2023-10-19T13:56:31;99418.19;;;22.76;37.79
9035;BME280;4552;43.422;24.592;2023-10-19T14:05:43;99417.44;;;22.74;38.13
9035;BME280;4552;43.422;24.592;2023-10-19T14:08:14;99407.50;;;22.76;38.00
9035;BME280;4552;43.422;24.592;2023-10-19T14:10:41;99409.53;;;22.73;37.73
9035;BME280;4552;43.422;24.592;2023-10-19T14:33:20;99352.09;;;23.03;37.58
9035;BME280;4552;43.422;24.592;2023-10-19T14:35:47;99345.00;;;22.91;37.93
9035;BME280;4552;43.422;24.592;2023-10-19T14:38:14;99345.00;;;22.91;37.74
9035;BME280;4552;43.422;24.592;2023-10-19T14:40:41;99335.97;;;22.81;38.10
9035;BME280;4552;43.422;24.592;2023-10-19T14:49:53;99329.84;;;22.92;38.34
9035;BME280;4552;43.422;24.592;2023-10-19T14:52:20;99336.63;;;22.96;38.08
9035;BME280;4552;43.422;24.592;2023-10-19T14:54:48;99342.28;;;22.80;38.15
9035;BME280;4552;43.422;24.592;2023-10-19T14:57:16;99335.00;;;22.82;38.03
9035;BME280;4552;43.422;24.592;2023-10-19T14:59:43;99339.75;;;22.66;38.98
9035;BME280;4552;43.422;24.592;2023-10-19T15:02:11;99330.91;;;22.53;39.24
9035;BME280;4552;43.422;24.592;2023-10-19T15:04:39;99325.22;;;22.70;39.08
9035;BME280;4552;43.422;24.592;2023-10-19T15:07:07;99315.41;;;22.71;38.66
9035;BME280;4552;43.422;24.592;2023-10-19T15:09:34;99313.75;;;22.57;38.78
9035;BME280;4552;43.422;24.592;2023-10-19T15:18:45;99302.22;;;22.32;39.79
9035;BME280;4552;43.422;24.592;2023-10-19T15:21:13;99299.81;;;22.03;40.97
9035;BME280;4552;43.422;24.592;2023-10-19T15:23:42;99299.50;;;21.83;40.95
9035;BME280;4552;43.422;24.592;2023-10-19T15:26:09;99315.75;;;21.53;44.06
9035;BME280;4552;43.422;24.592;2023-10-19T15:28:36;99310.16;;;21.31;44.48
9035;BME280;4552;43.422;24.592;2023-10-19T15:31:05;99314.91;;;21.14;44.22
9035;BME280;4552;43.422;24.592;2023-10-19T15:33:32;99292.78;;;20.73;45.98
9035;BME280;4552;43.422;24.592;2023-10-19T15:35:59;99290.41;;;20.55;46.18
9035;BME280;4552;43.422;24.592;2023-10-19T15:38:27;99279.59;;;20.30;47.48
9035;BME280;4552;43.422;24.592;2023-10-19T15:40:57;99282.84;;;20.21;46.07
9035;BME280;4552;43.422;24.592;2023-10-19T15:43:25;99283.03;;;20.04;47.32
9035;BME280;4552;43.422;24.592;2023-10-19T15:45:52;99291.47;;;19.97;46.98
9035;BME280;4552;43.422;24.592;2023-10-19T15:48:19;99286.91;;;19.85;48.03
9035;BME280;4552;43.422;24.592;2023-10-19T15:50:46;99292.03;;;19.88;47.82
9035;BME280;4552;43.422;24.592;2023-10-19T15:53:13;99289.56;;;19.71;47.65
9035;BME280;4552;43.422;24.592;2023-10-19T15:55:41;99296.28;;;19.76;47.14
9035;BME280;4552;43.422;24.592;2023-10-19T16:25:04;99317.03;;;18.50;50.96
9035;BME280;4552;43.422;24.592;2023-10-19T17:51:40;99268.88;;;16.94;53.44
9035;BME280;4552;43.422;24.592;2023-10-19T17:54:07;99268.25;;;17.06;52.34
9035;BME280;4552;43.422;24.592;2023-10-19T17:56:35;99254.94;;;17.08;52.12
9035;BME280;4552;43.422;24.592;2023-10-19T18:53:51;99276.47;;;16.11;58.66
9035;BME280;4552;43.422;24.592;2023-10-19T18:56:19;99287.78;;;15.94;59.39
9035;BME280;4552;43.422;24.592;2023-10-19T18:58:46;99261.72;;;15.68;58.38
9035;BME280;4552;43.422;24.592;2023-10-19T19:01:13;99255.69;;;15.66;58.26
9035;BME280;4552;43.422;24.592;2023-10-19T19:03:40;99254.59;;;15.70;59.00
9035;BME280;4552;43.422;24.592;2023-10-19T19:06:07;99260.13;;;15.84;57.85
9035;BME280;4552;43.422;24.592;2023-10-19T19:08:36;99250.44;;;15.85;58.04
9035;BME280;4552;43.422;24.592;2023-10-19T19:11:13;99258.91;;;15.91;58.70
9035;BME280;4552;43.422;24.592;2023-10-19T19:13:41;99265.53;;;15.81;59.89
9035;BME280;4552;43.422;24.592;2023-10-19T19:16:09;99255.97;;;15.60;60.58
9035;BME280;4552;43.422;24.592;2023-10-19T19:18:37;99252.84;;;15.71;60.02
9035;BME280;4552;43.422;24.592;2023-10-19T19:21:04;99242.69;;;15.62;59.87
9035;BME280;4552;43.422;24.592;2023-10-19T19:23:33;99263.41;;;15.30;61.91
9035;BME280;4552;43.422;24.592;2023-10-19T19:26:00;99264.53;;;15.25;62.35
9035;BME280;4552;43.422;24.592;2023-10-19T19:28:30;99264.88;;;15.37;61.55
9035;BME280;4552;43.422;24.592;2023-10-19T19:30:58;99264.25;;;15.31;62.72
9035;BME280;4552;43.422;24.592;2023-10-19T19:33:26;99250.75;;;15.18;62.09
9035;BME280;4552;43.422;24.592;2023-10-19T19:35:53;99233.47;;;15.31;61.26
9035;BME280;4552;43.422;24.592;2023-10-19T19:38:20;99262.41;;;15.33;61.99
9035;BME280;4552;43.422;24.592;2023-10-19T19:40:49;99264.41;;;15.28;61.75
9035;BME280;4552;43.422;24.592;2023-10-19T19:43:17;99262.88;;;15.22;61.71
9035;BME280;4552;43.422;24.592;2023-10-19T19:45:46;99254.38;;;14.96;62.93
9035;BME280;4552;43.422;24.592;2023-10-19T19:48:13;99246.97;;;15.04;61.83
9035;BME280;4552;43.422;24.592;2023-10-19T19:50:42;99260.28;;;15.01;62.73
9035;BME280;4552;43.422;24.592;2023-10-19T19:53:10;99255.41;;;15.12;62.78
9035;BME280;4552;43.422;24.592;2023-10-19T19:58:49;99248.72;;;15.05;63.16
9035;BME280;4552;43.422;24.592;2023-10-19T20:01:18;99228.28;;;14.90;64.51
9035;BME280;4552;43.422;24.592;2023-10-19T20:03:45;99227.63;;;14.85;64.12
9035;BME280;4552;43.422;24.592;2023-10-19T20:06:12;99234.94;;;14.98;63.97
9035;BME280;4552;43.422;24.592;2023-10-19T20:08:40;99243.69;;;14.99;64.57
9035;BME280;4552;43.422;24.592;2023-10-19T20:11:08;99253.56;;;14.94;64.60
9035;BME280;4552;43.422;24.592;2023-10-19T20:13:36;99247.75;;;14.86;64.17
9035;BME280;4552;43.422;24.592;2023-10-19T20:16:04;99236.97;;;14.92;64.12
9035;BME280;4552;43.422;24.592;2023-10-19T20:18:46;99260.16;;;15.04;63.74
9035;BME280;4552;43.422;24.592;2023-10-19T20:21:13;99232.34;;;14.77;64.50
9035;BME280;4552;43.422;24.592;2023-10-19T20:23:43;99245.25;;;14.83;64.64
9035;BME280;4552;43.422;24.592;2023-10-19T20:26:10;99239.72;;;14.89;63.51
9035;BME280;4552;43.422;24.592;2023-10-19T20:28:40;99250.25;;;14.89;64.32
9035;BME280;4552;43.422;24.592;2023-10-19T20:31:07;99235.16;;;14.72;64.35
9035;BME280;4552;43.422;24.592;2023-10-19T20:33:35;99226.06;;;14.59;65.37
9035;BME280;4552;43.422;24.592;2023-10-19T20:36:04;99236.72;;;14.78;65.03
9035;BME280;4552;43.422;24.592;2023-10-19T20:38:31;99241.19;;;14.76;65.19
9035;BME280;4552;43.422;24.592;2023-10-19T20:40:58;99220.91;;;14.78;64.31
9035;BME280;4552;43.422;24.592;2023-10-19T20:43:25;99243.63;;;15.00;64.41
9035;BME280;4552;43.422;24.592;2023-10-19T20:45:53;99232.00;;;14.84;65.02
9035;BME280;4552;43.422;24.592;2023-10-19T20:48:21;99211.97;;;14.60;66.63
9035;BME280;4552;43.422;24.592;2023-10-19T20:50:48;99216.78;;;14.71;66.86
9035;BME280;4552;43.422;24.592;2023-10-19T20:53:17;99233.47;;;14.71;66.37
9035;BME280;4552;43.422;24.592;2023-10-19T20:55:44;99214.94;;;14.53;67.24
9035;BME280;4552;43.422;24.592;2023-10-19T21:05:19;99237.31;;;14.20;69.91
9035;BME280;4552;43.422;24.592;2023-10-19T21:07:47;99230.97;;;14.25;70.17
9035;BME280;4552;43.422;24.592;2023-10-19T21:10:16;99231.25;;;14.18;70.28
9035;BME280;4552;43.422;24.592;2023-10-19T21:12:43;99216.06;;;14.03;70.94
9035;BME280;4552;43.422;24.592;2023-10-19T21:15:13;99215.53;;;14.16;69.81
9035;BME280;4552;43.422;24.592;2023-10-19T21:17:43;99221.97;;;14.08;71.13
9035;BME280;4552;43.422;24.592;2023-10-19T21:20:11;99205.84;;;13.95;71.17
9035;BME280;4552;43.422;24.592;2023-10-19T21:22:40;99221.75;;;13.92;71.28
9035;BME280;4552;43.422;24.592;2023-10-19T21:25:10;99211.88;;;13.97;70.50
9035;BME280;4552;43.422;24.592;2023-10-19T21:27:39;99218.81;;;14.00;69.91
9035;BME280;4552;43.422;24.592;2023-10-19T21:30:07;99212.06;;;13.92;70.38
9035;BME280;4552;43.422;24.592;2023-10-19T21:32:40;99219.72;;;13.98;69.66
9035;BME280;4552;43.422;24.592;2023-10-19T21:35:08;99235.56;;;13.97;69.99
9035;BME280;4552;43.422;24.592;2023-10-19T21:37:35;99237.59;;;13.90;69.97
9035;BME280;4552;43.422;24.592;2023-10-19T21:40:06;99209.91;;;13.80;70.55
9035;BME280;4552;43.422;24.592;2023-10-19T21:49:18;99218.66;;;13.81;69.75
9035;BME280;4552;43.422;24.592;2023-10-19T21:51:47;99222.28;;;14.00;69.52
9035;BME280;4552;43.422;24.592;2023-10-19T21:54:14;99222.84;;;14.08;68.47
9035;BME280;4552;43.422;24.592;2023-10-19T21:56:41;99215.25;;;14.01;68.49
9035;BME280;4552;43.422;24.592;2023-10-19T21:59:08;99208.53;;;13.93;69.43
9035;BME280;4552;43.422;24.592;2023-10-19T22:01:35;99210.94;;;14.00;69.27
9035;BME280;4552;43.422;24.592;2023-10-19T22:04:02;99227.09;;;14.12;69.01
9035;BME280;4552;43.422;24.592;2023-10-19T22:06:31;99209.50;;;13.91;69.30
9035;BME280;4552;43.422;24.592;2023-10-19T22:08:58;99199.63;;;13.74;71.28
9035;BME280;4552;43.422;24.592;2023-10-19T22:11:25;99222.59;;;13.92;70.89
9035;BME280;4552;43.422;24.592;2023-10-19T22:13:53;99208.78;;;13.87;72.16
9035;BME280;4552;43.422;24.592;2023-10-19T22:16:19;99217.38;;;13.91;71.19
9035;BME280;4552;43.422;24.592;2023-10-19T22:18:47;99215.50;;;13.94;70.88
9035;BME280;4552;43.422;24.592;2023-10-19T22:21:16;99201.56;;;13.69;72.97
9035;BME280;4552;43.422;24.592;2023-10-19T22:23:45;99197.75;;;13.78;72.53
9035;BME280;4552;43.422;24.592;2023-10-19T22:26:11;99207.00;;;13.65;73.68
9035;BME280;4552;43.422;24.592;2023-10-19T22:59:22;99203.53;;;13.64;77.70
9035;BME280;4552;43.422;24.592;2023-10-19T23:01:49;99201.13;;;13.81;77.46
9035;BME280;4552;43.422;24.592;2023-10-19T23:04:18;99198.38;;;13.84;76.78
9035;BME280;4552;43.422;24.592;2023-10-19T23:06:45;99191.28;;;13.63;78.42